Time;durP1;ratioP1;P1;durP2;ratioP2;P2;SDS_P1;SDS_P2;PMS_P1;PMS_P2;Temp;Humidity;BMP_temperature;BMP_pressure;BME280_temperature;BME280_humidity;BME280_pressure;Samples;Min_cycle;Max_cycle;Signal;HPM_P1;HPM_P2
2021/01/08 00:00:29;;;;;;;3.47;1.38;;;;;;;6.01;70.83;101372.03;5035369;28;20107;-84
2021/01/08 00:02:55;;;;;;;1.73;1.30;;;;;;;5.96;71.08;101376.34;5035747;28;20028;-82
2021/01/08 00:05:21;;;;;;;3.42;1.17;;;;;;;5.99;70.83;101373.75;5035030;28;20366;-80
2021/01/08 00:07:48;;;;;;;1.85;1.10;;;;;;;5.98;70.55;101375.50;5034521;28;20033;-81
2021/01/08 00:10:14;;;;;;;5.03;1.67;;;;;;;6.01;70.51;101365.88;5035613;28;20029;-84
2021/01/08 00:12:40;;;;;;;3.03;1.00;;;;;;;5.96;70.82;101369.31;5035841;28;20091;-84
2021/01/08 00:15:07;;;;;;;2.30;1.35;;;;;;;5.95;70.72;101370.19;5032548;28;20472;-84
2021/01/08 00:17:34;;;;;;;3.28;1.33;;;;;;;5.88;70.90;101365.75;5035606;28;20088;-82
2021/01/08 00:20:01;;;;;;;1.85;1.00;;;;;;;5.87;71.08;101368.34;5037950;28;20036;-81
2021/01/08 00:22:28;;;;;;;1.35;0.90;;;;;;;5.91;70.96;101373.66;5036306;28;20392;-79
2021/01/08 00:24:54;;;;;;;1.45;0.82;;;;;;;5.92;70.84;101364.00;5033525;28;20034;-79
2021/01/08 00:27:23;;;;;;;2.40;1.15;;;;;;;5.86;71.21;101363.97;5035385;28;20021;-90
2021/01/08 00:29:55;;;;;;;6.25;1.38;;;;;;;5.86;71.00;101367.50;5040863;28;20030;-78
2021/01/08 00:32:24;;;;;;;2.45;1.10;;;;;;;5.81;70.96;101370.06;5045167;28;20021;-90
2021/01/08 00:34:51;;;;;;;4.88;1.20;;;;;;;5.77;71.17;101367.41;5036389;28;20497;-84
2021/01/08 00:37:18;;;;;;;1.55;0.90;;;;;;;5.77;71.17;101370.94;5040171;28;20032;-90
2021/01/08 00:39:44;;;;;;;3.88;1.35;;;;;;;5.79;71.08;101366.53;5041228;28;20041;-83
2021/01/08 00:42:11;;;;;;;2.65;0.95;;;;;;;5.81;71.16;101370.06;5041952;28;20060;-86
2021/01/08 00:44:38;;;;;;;1.38;0.90;;;;;;;5.81;71.09;101374.47;5040833;28;20091;-80
2021/01/08 00:47:06;;;;;;;4.40;1.25;;;;;;;5.74;71.46;101376.16;5039399;28;20125;-82
2021/01/08 00:49:33;;;;;;;2.45;0.90;;;;;;;5.75;71.54;101374.41;5051618;22;20049;-77
2021/01/08 00:51:59;;;;;;;4.10;1.00;;;;;;;5.72;71.55;101374.38;5033339;28;20064;-76
2021/01/08 00:54:26;;;;;;;7.80;1.23;;;;;;;5.77;71.44;101368.31;5037505;28;20029;-78
2021/01/08 00:56:52;;;;;;;1.80;0.70;;;;;;;5.79;71.44;101363.91;5037960;28;20388;-77
2021/01/08 00:59:19;;;;;;;1.17;0.70;;;;;;;5.82;71.23;101366.59;5034771;28;20018;-79
2021/01/08 01:01:45;;;;;;;1.90;0.77;;;;;;;5.80;71.37;101363.06;5039836;28;20025;-79
2021/01/08 01:04:12;;;;;;;1.60;0.82;;;;;;;5.72;71.55;101359.50;5037514;28;20427;-79
2021/01/08 01:06:40;;;;;;;3.47;1.08;;;;;;;5.81;71.52;101364.81;5037737;28;20021;-80
2021/01/08 01:09:07;;;;;;;3.45;0.90;;;;;;;5.85;71.43;101365.72;5036871;28;20465;-79
2021/01/08 01:11:33;;;;;;;2.22;0.85;;;;;;;5.87;71.23;101363.09;5039998;28;20032;-80
2021/01/08 01:13:59;;;;;;;1.05;0.75;;;;;;;5.90;71.08;101364.00;5034433;28;20025;-78
2021/01/08 01:16:27;;;;;;;2.17;1.00;;;;;;;5.78;71.57;101361.28;5038712;28;20545;-81
2021/01/08 01:18:56;;;;;;;1.95;1.00;;;;;;;5.74;71.70;101357.75;5035582;28;20029;-80
2021/01/08 01:21:23;;;;;;;2.58;1.10;;;;;;;5.83;71.56;101364.81;5033154;28;20017;-81
2021/01/08 01:23:50;;;;;;;2.45;1.08;;;;;;;5.85;71.46;101370.97;5036038;28;20036;-80
2021/01/08 01:26:16;;;;;;;1.92;0.75;;;;;;;5.83;71.44;101377.97;5039733;28;20087;-83
2021/01/08 01:28:43;;;;;;;2.20;0.98;;;;;;;5.83;71.50;101370.09;5040909;28;20479;-82
2021/01/08 01:31:09;;;;;;;4.57;1.30;;;;;;;5.78;71.53;101385.84;5047965;28;20435;-78
2021/01/08 01:33:36;;;;;;;3.22;0.70;;;;;;;5.86;71.28;101377.13;5048755;28;20072;-79
2021/01/08 01:36:06;;;;;;;2.00;0.80;;;;;;;5.85;71.48;101375.38;5038144;28;20025;-80
2021/01/08 01:38:34;;;;;;;3.58;0.90;;;;;;;5.82;71.39;101377.09;5037278;28;20550;-79
2021/01/08 01:41:00;;;;;;;5.13;0.70;;;;;;;5.83;71.37;101385.84;5036233;28;20038;-79
2021/01/08 01:43:27;;;;;;;1.52;0.80;;;;;;;5.82;71.45;101387.63;5041364;28;20444;-79
2021/01/08 01:45:54;;;;;;;6.32;1.13;;;;;;;5.87;71.43;101386.78;5038628;28;20026;-79
2021/01/08 01:48:20;;;;;;;2.70;1.15;;;;;;;5.93;71.13;101384.19;5039424;28;20128;-79
2021/01/08 01:50:48;;;;;;;2.08;0.70;;;;;;;5.81;71.69;101391.13;5041027;28;20061;-79
2021/01/08 01:53:14;;;;;;;1.88;0.80;;;;;;;5.92;71.30;101390.31;5037207;28;20029;-80
2021/01/08 01:55:42;;;;;;;5.03;0.95;;;;;;;5.95;71.32;101395.63;5037652;28;20026;-80
2021/01/08 01:58:08;;;;;;;1.75;0.90;;;;;;;5.99;71.17;101393.06;5038815;28;20110;-80
2021/01/08 02:00:35;;;;;;;2.92;0.90;;;;;;;5.95;71.28;101399.09;5038577;28;20029;-79
2021/01/08 02:03:24;;;;;;;0.95;0.70;;;;;;;6.09;71.13;101396.66;5037716;28;20021;-80
2021/01/08 02:05:57;;;;;;;1.77;0.75;;;;;;;6.06;71.00;101401.88;5035471;28;20037;-79
2021/01/08 02:08:27;;;;;;;4.70;0.88;;;;;;;5.99;71.49;101394.78;5039946;28;20480;-80
2021/01/08 02:13:52;;;;;;;3.72;0.65;;;;;;;6.00;71.31;101407.09;5079080;27;20406;-79
2021/01/08 02:16:30;;;;;;;2.40;1.00;;;;;;;6.07;71.21;101398.38;5065223;28;20036;-79
2021/01/08 02:19:10;;;;;;;0.82;0.60;;;;;;;6.02;71.35;101405.34;5087499;22;20040;-79
2021/01/08 02:21:51;;;;;;;2.80;0.88;;;;;;;6.07;71.17;101400.09;5059115;28;20039;-78
2021/01/08 02:27:08;;;;;;;6.97;0.93;;;;;;;5.99;71.45;101413.22;5042370;28;20462;-82
2021/01/08 02:29:35;;;;;;;2.20;0.80;;;;;;;5.95;71.46;101411.41;5013267;28;20034;-79
2021/01/08 02:32:02;;;;;;;1.55;0.90;;;;;;;6.04;71.18;101413.25;5008431;28;20382;-79
2021/01/08 02:34:29;;;;;;;1.75;0.77;;;;;;;6.06;71.24;101409.75;5004121;28;20037;-79
2021/01/08 02:36:56;;;;;;;2.42;0.90;;;;;;;6.08;71.12;101409.75;5009270;28;20397;-80
2021/01/08 02:39:26;;;;;;;1.27;0.70;;;;;;;6.11;71.07;101412.44;5005128;28;20022;-87
2021/01/08 02:41:55;;;;;;;4.72;1.00;;;;;;;6.08;71.37;101412.41;5007932;28;20026;-79
2021/01/08 02:44:23;;;;;;;2.00;0.82;;;;;;;6.15;71.01;101416.84;5007739;28;20041;-86
2021/01/08 02:46:50;;;;;;;4.72;1.00;;;;;;;6.13;71.08;101411.56;4973989;28;20041;-79
2021/01/08 02:49:17;;;;;;;2.75;0.98;;;;;;;6.15;71.00;101416.84;5008098;28;20437;-78
2021/01/08 02:51:43;;;;;;;7.30;1.20;;;;;;;6.20;70.95;101419.50;5007456;28;20113;-79
2021/01/08 02:54:12;;;;;;;2.10;1.20;;;;;;;6.15;71.21;101412.44;4990056;28;20447;-79
2021/01/08 02:56:50;;;;;;;2.45;1.25;;;;;;;6.20;71.21;101416.88;5004826;28;20034;-79
2021/01/08 02:59:18;;;;;;;4.63;1.52;;;;;;;6.22;70.94;101413.41;5000906;28;20517;-80
2021/01/08 03:01:45;;;;;;;2.35;1.00;;;;;;;6.24;71.12;101416.03;4981629;28;20057;-79
2021/01/08 03:04:12;;;;;;;2.95;1.15;;;;;;;6.24;70.97;101418.66;4999997;28;20043;-79
2021/01/08 03:06:43;;;;;;;4.63;1.20;;;;;;;6.23;71.17;101419.53;5002100;28;20466;-79
2021/01/08 03:09:12;;;;;;;7.57;1.38;;;;;;;6.28;71.19;101417.81;5000331;28;20033;-78
2021/01/08 03:11:39;;;;;;;3.65;1.77;;;;;;;6.25;71.15;101423.94;4998353;28;20031;-78
2021/01/08 03:14:08;;;;;;;3.47;1.80;;;;;;;6.21;71.14;101414.25;4982179;28;20046;-78
2021/01/08 03:16:35;;;;;;;4.65;1.88;;;;;;;6.20;70.99;101415.13;5002307;28;20080;-80
2021/01/08 03:19:02;;;;;;;3.25;1.25;;;;;;;6.20;70.92;101417.75;5001457;28;20084;-79
2021/01/08 03:21:32;;;;;;;4.05;1.42;;;;;;;6.15;71.12;101422.97;4998697;28;20050;-81
2021/01/08 03:24:01;;;;;;;3.45;1.75;;;;;;;6.20;71.10;101416.88;4982757;28;20049;-81
2021/01/08 03:26:27;;;;;;;3.80;1.42;;;;;;;6.18;71.15;101415.97;5000861;28;20030;-81
2021/01/08 03:28:54;;;;;;;4.35;1.70;;;;;;;6.21;71.20;101426.53;4980569;28;20044;-81
2021/01/08 03:31:20;;;;;;;10.35;1.95;;;;;;;6.20;71.25;101419.50;4983309;28;20509;-79
2021/01/08 03:33:46;;;;;;;2.65;1.23;;;;;;;6.24;71.05;101421.28;5001005;28;20529;-83
2021/01/08 03:36:13;;;;;;;10.98;1.38;;;;;;;6.26;71.12;101416.94;5001413;28;20042;-80
2021/01/08 03:38:40;;;;;;;9.88;1.75;;;;;;;6.25;71.25;101409.91;4984185;28;20035;-79
2021/01/08 03:41:06;;;;;;;5.75;2.10;;;;;;;6.25;71.14;101413.41;4985644;28;20382;-79
2021/01/08 03:43:34;;;;;;;2.80;1.20;;;;;;;6.28;70.98;101412.53;4987998;28;20061;-78
2021/01/08 03:46:00;;;;;;;3.95;1.30;;;;;;;6.27;71.04;101410.81;4987925;28;20057;-79
2021/01/08 03:48:27;;;;;;;7.82;1.35;;;;;;;6.26;71.27;101414.31;4967720;28;20049;-80
2021/01/08 03:50:54;;;;;;;3.90;1.42;;;;;;;6.26;71.10;101414.31;4984613;28;20027;-79
2021/01/08 03:53:20;;;;;;;2.83;1.40;;;;;;;6.25;71.22;101412.53;4987803;28;20046;-80
2021/01/08 03:55:48;;;;;;;3.10;0.80;;;;;;;6.28;71.17;101413.44;4987766;28;20018;-80
2021/01/08 03:58:14;;;;;;;5.63;1.00;;;;;;;6.28;71.04;101417.81;4985863;28;20385;-80
2021/01/08 04:00:41;;;;;;;2.33;1.20;;;;;;;6.24;71.27;101416.03;4984414;28;20026;-78
2021/01/08 04:03:08;;;;;;;4.20;0.90;;;;;;;6.24;71.04;101408.13;4985530;28;20360;-82
2021/01/08 04:05:34;;;;;;;3.00;0.93;;;;;;;6.25;71.06;101415.16;4987373;28;20109;-80
2021/01/08 04:08:00;;;;;;;5.32;1.35;;;;;;;6.22;71.20;101412.50;4969345;28;20073;-78
2021/01/08 04:10:27;;;;;;;3.15;0.80;;;;;;;6.23;71.11;101414.25;4984070;28;20030;-78
2021/01/08 04:12:53;;;;;;;6.00;0.98;;;;;;;6.25;71.29;101415.16;4984398;28;20078;-78
2021/01/08 04:15:33;;;;;;;8.13;1.95;;;;;;;6.28;71.41;101417.81;4984095;28;20042;-78
2021/01/08 04:17:59;;;;;;;8.20;1.17;;;;;;;6.22;71.41;101429.19;4984516;28;20062;-78
2021/01/08 04:20:25;;;;;;;2.55;1.05;;;;;;;6.23;71.43;101416.91;4983742;28;20422;-79
2021/01/08 04:22:52;;;;;;;5.93;1.27;;;;;;;6.13;71.61;101419.47;4966816;28;20117;-80
2021/01/08 04:25:19;;;;;;;2.38;1.08;;;;;;;6.21;71.59;101421.28;4996741;28;20046;-79
2021/01/08 04:27:46;;;;;;;1.65;1.00;;;;;;;6.18;71.41;101423.88;5003872;28;20437;-79
2021/01/08 04:30:13;;;;;;;4.32;1.20;;;;;;;6.12;71.63;101420.34;5004202;28;20043;-79
2021/01/08 04:32:39;;;;;;;3.17;1.05;;;;;;;6.20;71.32;101419.50;5007163;28;20405;-79
2021/01/08 04:35:08;;;;;;;2.40;1.15;;;;;;;6.20;71.43;101422.16;5006246;28;20022;-80
2021/01/08 04:37:34;;;;;;;2.47;1.10;;;;;;;6.12;71.45;101422.97;5004118;28;20045;-79
2021/01/08 04:40:00;;;;;;;4.65;1.20;;;;;;;6.12;71.53;101428.22;5003424;28;20113;-82
2021/01/08 04:42:27;;;;;;;2.13;1.10;;;;;;;6.13;71.35;101423.84;5007474;28;20025;-78
2021/01/08 04:44:53;;;;;;;2.88;1.20;;;;;;;6.14;71.38;101422.97;5006441;28;20429;-80
2021/01/08 04:47:22;;;;;;;2.88;1.48;;;;;;;6.21;71.25;101426.53;5005816;28;20053;-94
2021/01/08 04:49:49;;;;;;;2.72;1.10;;;;;;;6.15;71.46;101422.97;5005699;28;20030;-83
2021/01/08 04:52:15;;;;;;;5.68;1.40;;;;;;;6.17;71.38;101430.00;5006538;28;20022;-78
2021/01/08 04:54:42;;;;;;;1.85;1.08;;;;;;;6.21;71.09;101432.69;5000661;28;20026;-79
2021/01/08 04:57:11;;;;;;;4.55;1.13;;;;;;;6.22;71.30;101428.28;5004330;28;20042;-79
2021/01/08 04:59:37;;;;;;;2.47;1.02;;;;;;;6.19;71.38;101428.28;5001505;28;20042;-79
2021/01/08 05:02:03;;;;;;;2.35;1.10;;;;;;;6.19;71.38;101428.28;5003767;28;20048;-78
2021/01/08 05:04:32;;;;;;;2.63;1.10;;;;;;;6.23;71.17;101430.94;5006332;28;20033;-79
2021/01/08 05:06:59;;;;;;;2.53;1.17;;;;;;;6.18;71.43;101431.78;5008783;28;20030;-78
2021/01/08 05:09:25;;;;;;;3.33;1.40;;;;;;;6.18;71.32;101424.78;5002863;28;20026;-94
2021/01/08 05:11:54;;;;;;;3.72;1.38;;;;;;;6.16;71.54;101434.41;5003764;28;20113;-92
2021/01/08 05:14:20;;;;;;;4.93;1.10;;;;;;;6.15;71.26;101436.13;5006392;28;20109;-93
2021/01/08 05:16:46;;;;;;;4.25;1.45;;;;;;;6.15;71.49;101436.13;5029247;28;20037;-96
2021/01/08 05:19:14;;;;;;;1.67;1.10;;;;;;;6.13;71.50;101435.25;5000784;23;20043;-87
2021/01/08 05:21:40;;;;;;;2.80;1.17;;;;;;;6.17;71.34;101436.16;4974043;28;20054;-88
2021/01/08 05:24:07;;;;;;;2.70;1.30;;;;;;;6.21;71.25;101437.06;4974644;28;20106;-88
2021/01/08 05:26:33;;;;;;;1.95;0.93;;;;;;;6.18;71.41;101434.41;4974905;28;20061;-87
2021/01/08 05:29:02;;;;;;;1.20;0.90;;;;;;;6.22;71.28;101436.19;4969613;28;20027;-88
2021/01/08 05:31:30;;;;;;;1.13;0.85;;;;;;;6.22;70.97;101441.44;4972705;28;20363;-87
2021/01/08 05:33:57;;;;;;;2.45;1.15;;;;;;;6.20;71.47;101445.84;4973156;28;20035;-87
2021/01/08 05:36:25;;;;;;;4.57;0.98;;;;;;;6.23;71.28;101457.25;4974424;28;20018;-87
2021/01/08 05:38:55;;;;;;;2.28;1.02;;;;;;;6.24;71.26;101450.25;4973688;28;20398;-88
2021/01/08 05:41:24;;;;;;;2.60;1.10;;;;;;;6.24;71.15;101456.41;4973800;28;20462;-89
2021/01/08 05:43:50;;;;;;;1.92;1.05;;;;;;;6.25;71.08;101457.28;4973764;28;20030;-86
2021/01/08 05:46:19;;;;;;;3.95;1.13;;;;;;;6.23;70.88;101461.63;4973817;28;20053;-85
2021/01/08 05:48:48;;;;;;;2.65;1.35;;;;;;;6.25;71.20;101459.91;4974242;28;20031;-89
2021/01/08 05:51:17;;;;;;;3.70;1.67;;;;;;;6.23;71.26;101457.25;4974574;28;20031;-89
2021/01/08 05:53:48;;;;;;;2.60;1.20;;;;;;;6.23;71.29;101456.38;4974108;28;20455;-89
2021/01/08 05:56:17;;;;;;;2.88;1.67;;;;;;;6.26;71.23;101461.66;4974460;28;20045;-89
2021/01/08 05:58:44;;;;;;;5.43;1.55;;;;;;;6.25;71.27;101459.91;4973947;28;20237;-89
2021/01/08 06:01:11;;;;;;;2.00;1.33;;;;;;;6.23;71.34;101464.25;4974132;28;20478;-89
2021/01/08 06:03:39;;;;;;;5.32;1.27;;;;;;;6.26;71.45;101464.31;4974010;28;20027;-91
2021/01/08 06:06:06;;;;;;;2.33;1.60;;;;;;;6.22;71.18;101462.50;4974404;28;20101;-89
2021/01/08 06:14:02;;;;;;;2.92;1.65;;;;;;;6.31;71.14;101465.22;5079590;28;20402;-89
2021/01/08 06:16:36;;;;;;;5.88;1.70;;;;;;;6.35;71.29;101464.34;5067124;28;20024;-89
2021/01/08 06:19:04;;;;;;;4.55;1.83;;;;;;;6.30;71.13;101468.72;5055472;28;20033;-89
2021/01/08 06:21:39;;;;;;;1.95;1.55;;;;;;;6.36;70.97;101471.38;5047108;28;20021;-89
2021/01/08 06:24:10;;;;;;;3.83;1.73;;;;;;;6.33;71.25;101468.75;5045179;28;20080;-90
2021/01/08 06:26:37;;;;;;;8.07;1.98;;;;;;;6.36;70.93;101475.78;5044183;28;20043;-89
2021/01/08 06:29:26;;;;;;;3.88;1.58;;;;;;;6.40;70.96;101474.94;5035808;28;20029;-88
2021/01/08 06:34:45;;;;;;;4.70;2.05;;;;;;;6.36;71.10;101476.66;5070373;27;20394;-88
2021/01/08 06:37:17;;;;;;;2.83;1.80;;;;;;;6.37;71.24;101470.53;5069642;28;20025;-88
2021/01/08 06:39:45;;;;;;;4.63;1.95;;;;;;;6.36;71.25;101478.41;5055647;28;20067;-89
2021/01/08 06:42:25;;;;;;;4.90;1.90;;;;;;;6.44;70.99;101481.97;5054900;28;20506;-89
2021/01/08 06:44:52;;;;;;;3.38;1.60;;;;;;;6.33;71.23;101484.53;5059158;28;20448;-89
2021/01/08 06:47:21;;;;;;;3.80;2.30;;;;;;;6.37;71.05;101488.94;5065038;28;20033;-90
2021/01/08 06:49:52;;;;;;;3.97;2.25;;;;;;;6.41;71.24;101485.47;5075970;22;20075;-82
2021/01/08 06:52:20;;;;;;;2.85;2.10;;;;;;;6.33;71.05;101495.06;5068633;28;20051;-79
2021/01/08 06:54:54;;;;;;;5.22;1.90;;;;;;;6.41;71.09;101489.84;5068174;28;20389;-80
2021/01/08 06:57:22;;;;;;;4.82;1.92;;;;;;;6.38;71.33;101497.72;5072161;28;20488;-87
2021/01/08 06:59:59;;;;;;;3.40;2.15;;;;;;;6.44;70.99;101500.41;5069582;28;20049;-80
2021/01/08 07:02:27;;;;;;;4.65;1.80;;;;;;;6.39;71.10;101503.00;5066084;28;20051;-80
2021/01/08 07:04:56;;;;;;;8.07;2.53;;;;;;;6.39;70.98;101508.28;5060203;28;20025;-79
2021/01/08 07:07:28;;;;;;;6.53;2.55;;;;;;;6.44;71.25;101508.28;5061999;28;20124;-79
2021/01/08 07:09:55;;;;;;;3.30;2.13;;;;;;;6.43;70.94;101506.53;5068245;28;20075;-79
2021/01/08 07:12:24;;;;;;;4.53;2.10;;;;;;;6.44;70.84;101517.09;5069669;28;20021;-79
2021/01/08 07:14:51;;;;;;;6.72;2.05;;;;;;;6.40;71.09;101523.19;5069579;28;20086;-79
2021/01/08 07:17:31;;;;;;;3.25;1.90;;;;;;;6.51;71.04;101525.03;5069652;28;20036;-80
2021/01/08 07:20:01;;;;;;;6.03;1.98;;;;;;;6.47;70.88;101526.75;5064381;28;20032;-79
2021/01/08 07:22:36;;;;;;;3.88;1.90;;;;;;;6.49;71.10;101527.63;5069777;28;20446;-81
2021/01/08 07:25:05;;;;;;;4.57;1.88;;;;;;;6.44;70.87;101527.63;5069246;28;20020;-79
2021/01/08 07:27:43;;;;;;;4.43;2.35;;;;;;;6.45;71.00;101537.25;5069450;28;20033;-79
2021/01/08 07:30:10;;;;;;;5.72;2.30;;;;;;;6.44;71.03;101546.03;5060253;28;20104;-79
2021/01/08 07:32:43;;;;;;;8.18;2.63;;;;;;;6.47;70.96;101535.53;5069120;28;20036;-80
2021/01/08 07:38:13;;;;;;;5.15;2.38;;;;;;;6.47;70.94;101540.78;5090019;27;20446;-78
2021/01/08 07:43:37;;;;;;;7.15;3.38;;;;;;;6.42;71.01;101550.41;5069594;28;20836;-79
2021/01/08 07:46:04;;;;;;;7.57;2.67;;;;;;;6.43;70.80;101554.81;5051084;28;20531;-80
2021/01/08 07:48:39;;;;;;;8.15;2.88;;;;;;;6.43;70.69;101562.69;5045926;28;20113;-80
2021/01/08 07:53:52;;;;;;;6.93;2.92;;;;;;;6.41;70.83;101566.19;5127726;27;20358;-79
2021/01/08 07:56:27;;;;;;;4.80;2.58;;;;;;;6.45;70.79;101568.84;5117407;28;20031;-78
2021/01/08 07:59:04;;;;;;;5.05;3.03;;;;;;;6.45;70.73;101568.84;5119754;27;20438;-81
2021/01/08 08:01:32;;;;;;;5.43;2.83;;;;;;;6.40;70.65;101574.94;5127164;28;20027;-82
2021/01/08 08:04:03;;;;;;;6.53;3.55;;;;;;;6.42;70.96;101576.72;5113956;27;20105;-81
2021/01/08 08:06:32;;;;;;;6.50;3.55;;;;;;;6.42;70.85;101584.63;5123410;27;20020;-78
2021/01/08 08:09:01;;;;;;;5.38;3.08;;;;;;;6.40;71.08;101583.72;5122279;28;20119;-78
2021/01/08 08:11:30;;;;;;;6.88;3.72;;;;;;;6.39;70.90;101600.41;5114862;27;20083;-81
2021/01/08 08:13:56;;;;;;;8.45;3.63;;;;;;;6.38;70.98;101603.00;5127507;28;20169;-81
2021/01/08 08:16:39;;;;;;;5.70;3.65;;;;;;;6.49;70.98;101606.59;5117757;28;20030;-87
2021/01/08 08:19:06;;;;;;;;;;;;;;;6.60;70.12;101604.09;5118195;27;20114;-78
2021/01/08 08:21:33;;;;;;;5.13;3.22;;;;;;;6.44;70.78;101614.50;5127231;28;19911;-80
2021/01/08 08:26:41;;;;;;;8.85;3.67;;;;;;;6.43;70.85;101620.63;5090581;27;20883;-82
2021/01/08 08:29:09;;;;;;;7.32;3.30;;;;;;;6.47;70.91;101619.75;5069709;28;20381;-78
2021/01/08 08:34:27;;;;;;;45.08;18.98;;;;;;;6.51;70.93;101635.59;5090270;27;20149;-84
2021/01/08 08:36:54;;;;;;;15.30;7.32;;;;;;;6.47;71.17;101627.66;5070447;28;20037;-81
2021/01/08 08:39:20;;;;;;;17.55;5.90;;;;;;;6.50;71.10;101633.84;5059456;28;20026;-82
2021/01/08 08:41:48;;;;;;;10.30;5.10;;;;;;;6.50;71.04;101636.47;5048373;28;20480;-83
2021/01/08 08:44:17;;;;;;;9.02;5.35;;;;;;;6.53;71.03;101639.13;5035728;28;20041;-83
2021/01/08 08:46:55;;;;;;;8.30;4.05;;;;;;;6.58;70.76;101642.66;5039547;28;20109;-80
2021/01/08 08:52:05;;;;;;;6.82;3.80;;;;;;;6.55;70.78;101640.91;5085873;27;20417;-80
2021/01/08 08:54:38;;;;;;;5.82;4.22;;;;;;;6.63;70.95;101646.25;5070343;28;20029;-83
2021/01/08 08:57:05;;;;;;;6.22;3.50;;;;;;;6.58;70.94;101642.66;5057822;28;20029;-91
2021/01/08 08:59:47;;;;;;;7.75;3.90;;;;;;;6.69;70.79;101656.84;5063884;28;20063;-81
2021/01/08 09:05:02;;;;;;;7.15;3.67;;;;;;;6.66;71.07;101661.19;5078261;27;20820;-81
2021/01/08 09:07:34;;;;;;;7.13;4.65;;;;;;;6.69;71.03;101655.94;5070431;28;20024;-84
2021/01/08 09:10:13;;;;;;;27.30;13.27;;;;;;;6.71;70.84;101660.34;5053750;28;20039;-83
2021/01/08 09:15:55;;;;;;;12.00;4.88;;;;;;;6.85;70.63;101667.50;5077535;28;20473;-81
2021/01/08 09:23:54;;;;;;;6.68;4.07;;;;;;;6.80;70.91;101671.00;5077160;27;20406;-79
2021/01/08 09:26:22;;;;;;;7.47;4.28;;;;;;;6.85;70.88;101670.16;5071199;28;20021;-77
2021/01/08 09:28:52;;;;;;;14.45;4.22;;;;;;;6.90;70.98;101673.69;5063923;28;20033;-85
2021/01/08 09:31:20;;;;;;;5.80;3.50;;;;;;;6.93;70.83;101679.88;5049877;28;20032;-81
2021/01/08 09:34:01;;;;;;;7.75;3.88;;;;;;;7.05;71.19;101676.47;5049592;28;20115;-84
2021/01/08 09:36:34;;;;;;;6.90;3.60;;;;;;;6.99;71.36;101673.78;5050461;28;20037;-81
2021/01/08 09:39:03;;;;;;;5.90;4.25;;;;;;;7.03;70.99;101686.09;5049775;28;20427;-81
2021/01/08 09:41:33;;;;;;;8.55;4.00;;;;;;;7.08;70.99;101692.28;5044967;28;20029;-95
2021/01/08 09:44:03;;;;;;;6.43;3.63;;;;;;;7.10;71.17;101698.47;5044608;28;20059;-85
2021/01/08 09:46:29;;;;;;;5.63;3.30;;;;;;;7.08;71.25;101692.28;5049722;28;20035;-84
2021/01/08 09:49:06;;;;;;;5.55;3.17;;;;;;;7.17;70.75;101690.63;5048244;28;20124;-80
2021/01/08 09:51:32;;;;;;;3.53;2.78;;;;;;;7.10;70.78;101694.94;5047568;28;20029;-79
2021/01/08 09:53:59;;;;;;;7.80;3.50;;;;;;;7.08;70.67;101697.56;5049181;28;20475;-80
2021/01/08 09:56:25;;;;;;;5.90;3.38;;;;;;;7.07;70.87;101690.53;5045489;28;20104;-79
2021/01/08 09:59:13;;;;;;;3.13;2.33;;;;;;;7.12;69.98;101696.72;5048549;28;20051;-83
2021/01/08 10:01:52;;;;;;;4.45;2.60;;;;;;;7.09;69.92;101694.06;5047912;28;20040;-81
2021/01/08 10:04:28;;;;;;;5.65;3.08;;;;;;;7.11;70.08;101707.25;5047684;28;20408;-81
2021/01/08 10:07:01;;;;;;;6.43;3.38;;;;;;;7.05;70.00;101708.09;5047559;28;20064;-81
2021/01/08 10:09:43;;;;;;;5.25;2.90;;;;;;;7.00;70.01;101704.50;5035143;28;20049;-79
2021/01/08 10:12:10;;;;;;;5.47;3.50;;;;;;;7.00;69.57;101712.41;5034844;28;20091;-80
2021/01/08 10:14:37;;;;;;;5.88;2.75;;;;;;;7.01;69.60;101714.19;5049109;28;20136;-82
2021/01/08 10:17:08;;;;;;;5.13;2.63;;;;;;;7.06;69.66;101712.47;5049762;28;20542;-80
2021/01/08 10:19:35;;;;;;;5.90;2.92;;;;;;;7.05;69.50;101708.09;5049030;28;20063;-79
2021/01/08 10:22:03;;;;;;;4.95;2.92;;;;;;;7.06;69.37;101709.84;5049415;28;20100;-82
2021/01/08 10:24:29;;;;;;;5.25;3.25;;;;;;;7.06;69.73;101715.09;5048994;28;20381;-80
2021/01/08 10:26:56;;;;;;;3.97;2.33;;;;;;;7.05;69.59;101721.28;5048947;28;20134;-80
2021/01/08 10:29:31;;;;;;;5.75;2.58;;;;;;;7.12;69.51;101722.19;5048146;28;20515;-79
2021/01/08 10:32:03;;;;;;;6.93;2.97;;;;;;;7.07;69.69;101722.16;5047923;28;20400;-84
2021/01/08 10:34:33;;;;;;;;;;;;;;;7.33;69.34;101720.59;5037817;28;20373;-79
2021/01/08 10:36:59;;;;;;;4.90;3.10;;;;;;;7.14;70.00;101723.09;5034384;28;19940;-78
2021/01/08 10:39:26;;;;;;;4.38;3.00;;;;;;;7.12;69.86;101728.34;5033098;28;20083;-79
2021/01/08 10:41:52;;;;;;;9.52;3.38;;;;;;;7.13;70.13;101737.16;5034429;28;20499;-79
2021/01/08 10:44:18;;;;;;;15.50;8.70;;;;;;;7.11;70.27;101734.47;5035340;28;20488;-80
2021/01/08 10:46:44;;;;;;;10.60;5.13;;;;;;;7.11;70.12;101728.34;5025757;28;20038;-80
2021/01/08 10:49:10;;;;;;;6.97;3.90;;;;;;;7.16;70.39;101731.88;5031687;28;20029;-80
2021/01/08 10:51:38;;;;;;;6.97;2.90;;;;;;;7.23;70.07;101738.97;5031310;28;20040;-80
2021/01/08 10:54:04;;;;;;;4.03;2.97;;;;;;;7.27;70.17;101739.88;5034528;28;20089;-78
2021/01/08 10:56:30;;;;;;;6.63;3.17;;;;;;;7.30;70.55;101737.25;5034969;28;20025;-80
2021/01/08 10:58:57;;;;;;;3.55;2.67;;;;;;;7.38;70.28;101735.56;5034741;28;20104;-78
2021/01/08 11:01:24;;;;;;;5.28;3.00;;;;;;;7.42;70.34;101734.72;5032435;28;20551;-78
2021/01/08 11:03:50;;;;;;;5.78;2.72;;;;;;;7.42;70.82;101734.72;5030091;28;20036;-80
2021/01/08 11:06:18;;;;;;;5.28;3.08;;;;;;;7.47;70.86;101744.44;5033751;28;20376;-79
2021/01/08 11:08:45;;;;;;;4.07;2.72;;;;;;;7.52;70.34;101743.59;5031019;28;20029;-81
2021/01/08 11:11:13;;;;;;;3.95;2.65;;;;;;;7.57;70.62;101741.00;5032382;28;20461;-79
2021/01/08 11:13:40;;;;;;;4.07;2.60;;;;;;;7.56;70.39;101741.84;5032802;28;20041;-79
2021/01/08 11:16:07;;;;;;;3.55;2.42;;;;;;;7.63;70.64;101738.41;5032403;28;20030;-79
2021/01/08 11:18:34;;;;;;;3.55;2.25;;;;;;;7.60;70.72;101741.00;5034274;28;20072;-79
2021/01/08 11:21:00;;;;;;;2.92;2.05;;;;;;;7.61;69.82;101750.69;5032968;28;20056;-79
2021/01/08 11:23:28;;;;;;;3.42;1.92;;;;;;;7.49;70.30;101742.69;5031642;28;20120;-79
2021/01/08 11:25:54;;;;;;;2.42;1.73;;;;;;;7.48;70.00;101743.53;5032166;28;20041;-78
2021/01/08 11:28:20;;;;;;;2.42;1.92;;;;;;;7.48;69.64;101748.81;5031687;28;20037;-78
2021/01/08 11:30:48;;;;;;;5.72;2.38;;;;;;;7.38;69.85;101742.63;5032676;28;20108;-78
2021/01/08 11:33:14;;;;;;;2.88;1.98;;;;;;;7.34;69.65;101749.63;5031522;28;20033;-79
2021/01/08 11:35:40;;;;;;;4.85;2.40;;;;;;;7.32;70.25;101753.97;5033940;28;20101;-79
2021/01/08 11:38:07;;;;;;;2.80;2.08;;;;;;;7.33;70.25;101755.75;5030474;28;20052;-82
2021/01/08 11:40:33;;;;;;;3.60;2.22;;;;;;;7.47;69.92;101749.72;5031378;28;20030;-83
2021/01/08 11:42:59;;;;;;;3.13;2.42;;;;;;;7.58;69.61;101751.53;5033448;28;20029;-80
2021/01/08 11:45:25;;;;;;;4.55;2.92;;;;;;;7.68;70.15;101756.91;5029820;28;20029;-78
2021/01/08 11:47:51;;;;;;;17.00;8.38;;;;;;;7.75;70.01;101758.69;5033110;28;20021;-79
2021/01/08 11:50:18;;;;;;;9.20;4.10;;;;;;;7.78;69.18;101751.66;5032324;28;20041;-81
2021/01/08 11:52:45;;;;;;;5.72;2.90;;;;;;;7.81;69.22;101757.84;5039046;28;20026;-80
2021/01/08 11:55:11;;;;;;;4.70;2.90;;;;;;;7.85;69.05;101747.34;5034328;28;20543;-79
2021/01/08 11:57:38;;;;;;;3.70;2.33;;;;;;;7.89;69.06;101761.44;5034427;28;20109;-80
2021/01/08 12:00:06;;;;;;;4.15;2.67;;;;;;;7.92;69.16;101758.78;5034738;28;20388;-79
2021/01/08 12:02:32;;;;;;;4.63;2.28;;;;;;;7.93;68.85;101757.91;5035685;28;20080;-79
2021/01/08 12:04:58;;;;;;;4.72;2.22;;;;;;;7.94;68.76;101759.69;5034916;28;20041;-80
2021/01/08 12:07:24;;;;;;;3.38;1.90;;;;;;;7.93;68.99;101756.16;5034681;28;20362;-80
2021/01/08 12:09:50;;;;;;;3.28;2.00;;;;;;;7.96;68.50;101752.66;5034529;28;20025;-79
2021/01/08 12:12:16;;;;;;;3.15;1.63;;;;;;;7.96;69.01;101760.56;5033914;28;20091;-77
2021/01/08 12:14:42;;;;;;;5.30;1.83;;;;;;;7.95;68.83;101764.09;5033020;28;20041;-78
2021/01/08 12:17:10;;;;;;;1.90;1.40;;;;;;;7.96;68.53;101762.34;5032307;28;20022;-85
2021/01/08 12:19:38;;;;;;;3.65;1.60;;;;;;;7.97;68.22;101769.38;5033077;28;20504;-79
2021/01/08 12:22:05;;;;;;;3.05;1.83;;;;;;;7.95;68.75;101766.75;5030361;28;20037;-82